sensor_id;sensor_type;location;lat;lon;timestamp;pressure;altitude;pressure_sealevel;temperature;humidity
56518;BME280;42419;48.760;2.322;2022-09-13T00:01:12;100207.72;;;24.35;46.66
56518;BME280;42419;48.760;2.322;2022-09-13T00:03:38;100224.22;;;24.43;47.08
56518;BME280;42419;48.760;2.322;2022-09-13T00:06:08;100226.91;;;24.43;47.21
56518;BME280;42419;48.760;2.322;2022-09-13T00:08:34;100225.09;;;24.43;47.08
56518;BME280;42419;48.760;2.322;2022-09-13T00:11:00;100215.72;;;24.36;46.77
56518;BME280;42419;48.760;2.322;2022-09-13T00:13:25;100232.41;;;24.41;46.90
56518;BME280;42419;48.760;2.322;2022-09-13T00:15:50;100239.50;;;24.42;46.79
56518;BME280;42419;48.760;2.322;2022-09-13T00:18:17;100239.63;;;24.41;46.89
56518;BME280;42419;48.760;2.322;2022-09-13T00:20:42;100239.63;;;24.41;46.77
56518;BME280;42419;48.760;2.322;2022-09-13T00:23:08;100233.38;;;24.40;46.61
56518;BME280;42419;48.760;2.322;2022-09-13T00:25:35;100226.56;;;24.35;46.71
56518;BME280;42419;48.760;2.322;2022-09-13T00:28:00;100232.50;;;24.40;47.21
56518;BME280;42419;48.760;2.322;2022-09-13T00:30:26;100224.44;;;24.40;46.50
56518;BME280;42419;48.760;2.322;2022-09-13T00:32:51;100227.13;;;24.40;47.07
56518;BME280;42419;48.760;2.322;2022-09-13T00:35:16;100209.34;;;24.37;46.92
56518;BME280;42419;48.760;2.322;2022-09-13T00:37:42;100208.38;;;24.38;47.24
56518;BME280;42419;48.760;2.322;2022-09-13T00:40:08;100206.66;;;24.37;46.93
56518;BME280;42419;48.760;2.322;2022-09-13T00:42:34;100205.78;;;24.37;46.81
56518;BME280;42419;48.760;2.322;2022-09-13T00:45:00;100208.47;;;24.37;46.35
56518;BME280;42419;48.760;2.322;2022-09-13T00:47:45;100203.31;;;24.34;46.67
56518;BME280;42419;48.760;2.322;2022-09-13T00:50:36;100205.03;;;24.35;46.69
56518;BME280;42419;48.760;2.322;2022-09-13T00:53:10;100204.16;;;24.34;46.63
56518;BME280;42419;48.760;2.322;2022-09-13T00:56:07;100196.19;;;24.33;46.61
56518;BME280;42419;48.760;2.322;2022-09-13T00:58:43;100178.09;;;24.22;46.12
56518;BME280;42419;48.760;2.322;2022-09-13T01:01:12;100198.88;;;24.33;46.20
56518;BME280;42419;48.760;2.322;2022-09-13T01:03:39;100196.19;;;24.33;46.09
56518;BME280;42419;48.760;2.322;2022-09-13T01:06:10;100191.69;;;24.33;45.92
56518;BME280;42419;48.760;2.322;2022-09-13T01:08:38;100182.88;;;24.31;45.94
56518;BME280;42419;48.760;2.322;2022-09-13T01:11:06;100180.91;;;24.33;46.30
56518;BME280;42419;48.760;2.322;2022-09-13T01:13:37;100179.19;;;24.32;46.18
56518;BME280;42419;48.760;2.322;2022-09-13T01:16:03;100179.19;;;24.32;46.05
56518;BME280;42419;48.760;2.322;2022-09-13T01:18:28;100139.94;;;24.15;46.14
56518;BME280;42419;48.760;2.322;2022-09-13T01:21:56;100173.94;;;24.31;46.00
56518;BME280;42419;48.760;2.322;2022-09-13T01:26:46;100170.47;;;24.29;45.84
56518;BME280;42419;48.760;2.322;2022-09-13T01:42:41;100167.88;;;24.27;45.77
56518;BME280;42419;48.760;2.322;2022-09-13T01:48:28;100154.53;;;24.26;45.86
56518;BME280;42419;48.760;2.322;2022-09-13T01:51:04;100158.94;;;24.27;45.84
56518;BME280;42419;48.760;2.322;2022-09-13T01:58:48;100148.19;;;24.27;46.41
56518;BME280;42419;48.760;2.322;2022-09-13T02:04:21;100128.66;;;24.23;46.51
56518;BME280;42419;48.760;2.322;2022-09-13T02:06:55;100136.56;;;24.26;46.03
56518;BME280;42419;48.760;2.322;2022-09-13T02:09:25;100134.81;;;24.25;46.32
56518;BME280;42419;48.760;2.322;2022-09-13T02:12:13;100122.75;;;24.18;46.27
56518;BME280;42419;48.760;2.322;2022-09-13T02:14:42;100127.63;;;24.26;46.37
56518;BME280;42419;48.760;2.322;2022-09-13T02:17:22;100124.94;;;24.26;46.04
56518;BME280;42419;48.760;2.322;2022-09-13T02:19:54;100125.03;;;24.24;46.23
56518;BME280;42419;48.760;2.322;2022-09-13T02:22:26;100124.94;;;24.26;46.04
56518;BME280;42419;48.760;2.322;2022-09-13T02:24:56;100124.06;;;24.25;46.42
56518;BME280;42419;48.760;2.322;2022-09-13T02:27:28;100122.25;;;24.26;46.29
56518;BME280;42419;48.760;2.322;2022-09-13T02:30:01;100110.19;;;24.19;46.15
56518;BME280;42419;48.760;2.322;2022-09-13T02:32:31;100111.47;;;24.26;46.12
56518;BME280;42419;48.760;2.322;2022-09-13T02:35:07;100117.81;;;24.25;46.18
56518;BME280;42419;48.760;2.322;2022-09-13T02:37:38;100115.13;;;24.25;46.34
56518;BME280;42419;48.760;2.322;2022-09-13T02:40:07;100119.66;;;24.24;45.77
56518;BME280;42419;48.760;2.322;2022-09-13T02:42:41;100118.78;;;24.24;46.16
56518;BME280;42419;48.760;2.322;2022-09-13T02:45:09;100119.66;;;24.24;46.27
56518;BME280;42419;48.760;2.322;2022-09-13T02:47:53;100108.88;;;24.24;45.74
56518;BME280;42419;48.760;2.322;2022-09-13T02:50:45;100099.94;;;24.24;45.98
56518;BME280;42419;48.760;2.322;2022-09-13T02:53:24;100107.16;;;24.23;45.65
56518;BME280;42419;48.760;2.322;2022-09-13T02:56:28;100105.31;;;24.24;45.65
56518;BME280;42419;48.760;2.322;2022-09-13T02:59:18;100108.13;;;24.22;45.83
56518;BME280;42419;48.760;2.322;2022-09-13T03:01:58;100111.78;;;24.21;45.49
56518;BME280;42419;48.760;2.322;2022-09-13T03:04:27;100098.34;;;24.21;45.57
56518;BME280;42419;48.760;2.322;2022-09-13T03:06:53;100110.06;;;24.20;45.77
56518;BME280;42419;48.760;2.322;2022-09-13T03:09:19;100106.41;;;24.21;45.39
56518;BME280;42419;48.760;2.322;2022-09-13T03:15:15;100102.94;;;24.19;45.30
56518;BME280;42419;48.760;2.322;2022-09-13T03:20:40;100085.97;;;24.19;45.67
56518;BME280;42419;48.760;2.322;2022-09-13T03:23:30;100091.34;;;24.19;45.32
56518;BME280;42419;48.760;2.322;2022-09-13T03:26:19;100089.63;;;24.17;45.42
56518;BME280;42419;48.760;2.322;2022-09-13T03:29:05;100094.13;;;24.17;45.75
56518;BME280;42419;48.760;2.322;2022-09-13T03:31:38;100100.38;;;24.17;45.52
56518;BME280;42419;48.760;2.322;2022-09-13T03:34:12;100104.88;;;24.17;45.43
56518;BME280;42419;48.760;2.322;2022-09-13T03:39:46;100107.59;;;24.17;44.89
56518;BME280;42419;48.760;2.322;2022-09-13T03:42:27;100093.00;;;24.07;45.43
56518;BME280;42419;48.760;2.322;2022-09-13T03:44:55;100099.50;;;24.17;45.04
56518;BME280;42419;48.760;2.322;2022-09-13T03:47:24;100082.25;;;24.07;45.41
56518;BME280;42419;48.760;2.322;2022-09-13T03:49:51;100089.63;;;24.17;45.14
56518;BME280;42419;48.760;2.322;2022-09-13T03:52:17;100065.91;;;24.10;45.13
56518;BME280;42419;48.760;2.322;2022-09-13T03:54:43;100085.09;;;24.18;45.46
56518;BME280;42419;48.760;2.322;2022-09-13T03:57:16;100092.31;;;24.17;45.44
56518;BME280;42419;48.760;2.322;2022-09-13T03:59:51;100100.38;;;24.17;45.51
56518;BME280;42419;48.760;2.322;2022-09-13T04:02:17;100096.72;;;24.19;45.64
56518;BME280;42419;48.760;2.322;2022-09-13T04:04:45;100101.25;;;24.18;45.42
56518;BME280;42419;48.760;2.322;2022-09-13T04:07:13;100095.94;;;24.16;45.37
56518;BME280;42419;48.760;2.322;2022-09-13T04:09:39;100104.81;;;24.19;45.53
56518;BME280;42419;48.760;2.322;2022-09-13T04:12:05;100106.63;;;24.18;45.42
56518;BME280;42419;48.760;2.322;2022-09-13T04:14:30;100105.75;;;24.17;45.54
56518;BME280;42419;48.760;2.322;2022-09-13T04:16:56;100119.22;;;24.17;45.48
56518;BME280;42419;48.760;2.322;2022-09-13T04:19:23;100118.25;;;24.19;45.51
56518;BME280;42419;48.760;2.322;2022-09-13T04:21:49;100125.44;;;24.18;45.21
56518;BME280;42419;48.760;2.322;2022-09-13T04:24:16;100127.16;;;24.19;45.09
56518;BME280;42419;48.760;2.322;2022-09-13T04:26:42;100126.31;;;24.19;45.09
56518;BME280;42419;48.760;2.322;2022-09-13T04:29:07;100108.94;;;24.10;45.30
56518;BME280;42419;48.760;2.322;2022-09-13T04:31:32;100110.28;;;24.17;45.75
56518;BME280;42419;48.760;2.322;2022-09-13T04:33:58;100085.28;;;24.15;45.44
56518;BME280;42419;48.760;2.322;2022-09-13T04:36:24;100093.25;;;24.16;45.58
56518;BME280;42419;48.760;2.322;2022-09-13T04:38:50;100117.38;;;24.18;45.30
56518;BME280;42419;48.760;2.322;2022-09-13T04:41:15;100106.81;;;24.15;45.36
56518;BME280;42419;48.760;2.322;2022-09-13T04:43:42;100103.06;;;24.17;45.22
56518;BME280;42419;48.760;2.322;2022-09-13T04:46:07;100085.91;;;24.06;45.21
56518;BME280;42419;48.760;2.322;2022-09-13T04:48:32;100106.63;;;24.18;45.13
56518;BME280;42419;48.760;2.322;2022-09-13T04:51:02;100094.75;;;24.08;45.32
56518;BME280;42419;48.760;2.322;2022-09-13T04:53:31;100105.84;;;24.16;45.24
56518;BME280;42419;48.760;2.322;2022-09-13T04:56:01;100114.78;;;24.16;44.92
56518;BME280;42419;48.760;2.322;2022-09-13T04:58:27;100114.13;;;24.13;45.39
56518;BME280;42419;48.760;2.322;2022-09-13T05:00:52;100120.16;;;24.16;45.14
56518;BME280;42419;48.760;2.322;2022-09-13T05:03:21;100104.03;;;24.16;45.26
56518;BME280;42419;48.760;2.322;2022-09-13T05:05:46;100089.78;;;24.14;45.19
56518;BME280;42419;48.760;2.322;2022-09-13T05:08:12;100083.69;;;24.12;45.37
56518;BME280;42419;48.760;2.322;2022-09-13T05:10:37;100099.59;;;24.15;45.46
56518;BME280;42419;48.760;2.322;2022-09-13T05:13:02;100119.28;;;24.16;45.30
56518;BME280;42419;48.760;2.322;2022-09-13T05:15:28;100135.44;;;24.16;45.73
56518;BME280;42419;48.760;2.322;2022-09-13T05:17:53;100137.16;;;24.17;45.21
56518;BME280;42419;48.760;2.322;2022-09-13T05:20:18;100121.97;;;24.16;45.39
56518;BME280;42419;48.760;2.322;2022-09-13T05:22:43;100121.97;;;24.16;45.40
56518;BME280;42419;48.760;2.322;2022-09-13T05:25:09;100125.53;;;24.16;45.96
56518;BME280;42419;48.760;2.322;2022-09-13T05:27:34;100113.91;;;24.16;45.49
56518;BME280;42419;48.760;2.322;2022-09-13T05:29:59;100113.91;;;24.16;45.84
56518;BME280;42419;48.760;2.322;2022-09-13T05:32:25;100106.25;;;24.10;46.13
56518;BME280;42419;48.760;2.322;2022-09-13T05:34:50;100110.78;;;24.09;46.18
56518;BME280;42419;48.760;2.322;2022-09-13T05:37:17;100114.75;;;24.04;46.48
56518;BME280;42419;48.760;2.322;2022-09-13T05:39:42;100103.63;;;23.96;46.47
56518;BME280;42419;48.760;2.322;2022-09-13T05:42:07;100116.31;;;23.94;46.77
56518;BME280;42419;48.760;2.322;2022-09-13T05:44:33;100116.59;;;23.89;46.81
56518;BME280;42419;48.760;2.322;2022-09-13T05:46:58;100116.69;;;23.88;46.34
56518;BME280;42419;48.760;2.322;2022-09-13T05:49:23;100115.13;;;23.84;46.64
56518;BME280;42419;48.760;2.322;2022-09-13T05:51:48;100109.19;;;23.79;46.61
56518;BME280;42419;48.760;2.322;2022-09-13T05:54:14;100107.66;;;23.74;46.66
56518;BME280;42419;48.760;2.322;2022-09-13T05:56:39;100098.72;;;23.74;47.09
56518;BME280;42419;48.760;2.322;2022-09-13T05:59:05;100098.00;;;23.72;46.47
56518;BME280;42419;48.760;2.322;2022-09-13T06:01:30;100100.03;;;23.68;47.01
56518;BME280;42419;48.760;2.322;2022-09-13T06:03:57;100085.72;;;23.68;46.72
56518;BME280;42419;48.760;2.322;2022-09-13T06:06:23;100089.34;;;23.67;47.24
56518;BME280;42419;48.760;2.322;2022-09-13T06:08:52;100078.25;;;23.59;46.97
56518;BME280;42419;48.760;2.322;2022-09-13T06:11:17;100088.28;;;23.69;47.25
56518;BME280;42419;48.760;2.322;2022-09-13T06:13:43;100086.47;;;23.70;47.38
56518;BME280;42419;48.760;2.322;2022-09-13T06:16:10;100091.75;;;23.71;47.20
56518;BME280;42419;48.760;2.322;2022-09-13T06:18:36;100089.91;;;23.72;47.17
56518;BME280;42419;48.760;2.322;2022-09-13T06:21:08;100084.34;;;23.75;47.09
56518;BME280;42419;48.760;2.322;2022-09-13T06:23:34;100071.41;;;23.67;47.25
56518;BME280;42419;48.760;2.322;2022-09-13T06:26:00;100071.56;;;23.79;46.81
56518;BME280;42419;48.760;2.322;2022-09-13T06:28:26;100068.88;;;23.79;47.24
56518;BME280;42419;48.760;2.322;2022-09-13T06:30:51;100056.50;;;23.76;46.82
56518;BME280;42419;48.760;2.322;2022-09-13T06:33:17;100063.31;;;23.82;47.19
56518;BME280;42419;48.760;2.322;2022-09-13T06:35:42;100055.97;;;23.84;46.73
56518;BME280;42419;48.760;2.322;2022-09-13T06:38:07;100056.84;;;23.84;46.79
56518;BME280;42419;48.760;2.322;2022-09-13T06:40:32;100027.88;;;23.75;47.11
56518;BME280;42419;48.760;2.322;2022-09-13T06:42:58;100040.56;;;23.87;47.16
56518;BME280;42419;48.760;2.322;2022-09-13T06:45:23;100046.69;;;23.89;47.14
56518;BME280;42419;48.760;2.322;2022-09-13T06:47:48;100046.59;;;23.91;47.28
56518;BME280;42419;48.760;2.322;2022-09-13T06:50:14;100041.09;;;23.92;46.92
56518;BME280;42419;48.760;2.322;2022-09-13T06:52:39;100030.25;;;23.94;46.94
56518;BME280;42419;48.760;2.322;2022-09-13T06:55:05;100027.47;;;23.95;46.54
56518;BME280;42419;48.760;2.322;2022-09-13T06:57:30;99991.47;;;23.84;46.76
56518;BME280;42419;48.760;2.322;2022-09-13T06:59:55;100013.81;;;23.98;46.95
56518;BME280;42419;48.760;2.322;2022-09-13T07:02:21;99998.06;;;23.92;46.94
56518;BME280;42419;48.760;2.322;2022-09-13T07:04:46;100015.41;;;24.01;46.55
56518;BME280;42419;48.760;2.322;2022-09-13T07:07:11;100010.16;;;23.99;46.85
56518;BME280;42419;48.760;2.322;2022-09-13T07:09:37;100014.38;;;24.03;46.78
56518;BME280;42419;48.760;2.322;2022-09-13T07:12:04;100003.69;;;24.02;46.70
56518;BME280;42419;48.760;2.322;2022-09-13T07:14:29;100000.38;;;23.98;46.61
56518;BME280;42419;48.760;2.322;2022-09-13T07:16:55;100008.69;;;24.08;46.40
56518;BME280;42419;48.760;2.322;2022-09-13T07:19:25;100014.16;;;24.06;46.84
56518;BME280;42419;48.760;2.322;2022-09-13T07:21:51;99998.97;;;24.05;46.36
56518;BME280;42419;48.760;2.322;2022-09-13T07:24:17;100006.31;;;24.16;46.40
56518;BME280;42419;48.760;2.322;2022-09-13T07:26:43;100013.34;;;24.19;46.23
56518;BME280;42419;48.760;2.322;2022-09-13T07:29:12;99992.31;;;24.11;46.78
56518;BME280;42419;48.760;2.322;2022-09-13T07:31:47;100002.44;;;24.20;46.17
56518;BME280;42419;48.760;2.322;2022-09-13T07:34:14;100010.84;;;24.28;46.08
56518;BME280;42419;48.760;2.322;2022-09-13T07:36:41;100008.94;;;24.30;46.10
56518;BME280;42419;48.760;2.322;2022-09-13T07:39:07;100012.34;;;24.32;45.85
56518;BME280;42419;48.760;2.322;2022-09-13T07:41:33;100016.78;;;24.33;45.74
56518;BME280;42419;48.760;2.322;2022-09-13T07:44:00;100010.66;;;24.31;46.11
56518;BME280;42419;48.760;2.322;2022-09-13T07:46:33;100016.03;;;24.31;45.83
56518;BME280;42419;48.760;2.322;2022-09-13T07:49:01;100016.59;;;24.36;45.88
56518;BME280;42419;48.760;2.322;2022-09-13T07:51:45;100030.78;;;24.38;46.25
56518;BME280;42419;48.760;2.322;2022-09-13T07:54:13;100019.28;;;24.36;46.08
56518;BME280;42419;48.760;2.322;2022-09-13T07:56:40;100028.00;;;24.40;45.79
56518;BME280;42419;48.760;2.322;2022-09-13T07:59:09;100014.97;;;24.34;45.59
56518;BME280;42419;48.760;2.322;2022-09-13T08:01:40;100031.56;;;24.40;45.53
56518;BME280;42419;48.760;2.322;2022-09-13T08:04:11;100033.25;;;24.41;45.97
56518;BME280;42419;48.760;2.322;2022-09-13T08:06:38;100023.34;;;24.42;45.69
56518;BME280;42419;48.760;2.322;2022-09-13T08:09:05;100034.13;;;24.42;45.70
56518;BME280;42419;48.760;2.322;2022-09-13T08:11:37;100029.59;;;24.42;45.83
56518;BME280;42419;48.760;2.322;2022-09-13T08:14:04;100028.75;;;24.42;45.96
56518;BME280;42419;48.760;2.322;2022-09-13T08:16:30;100026.91;;;24.42;45.84
56518;BME280;42419;48.760;2.322;2022-09-13T08:18:58;100026.03;;;24.42;45.98
56518;BME280;42419;48.760;2.322;2022-09-13T08:21:25;100020.13;;;24.37;45.49
56518;BME280;42419;48.760;2.322;2022-09-13T08:23:56;100011.41;;;24.33;45.84
56518;BME280;42419;48.760;2.322;2022-09-13T08:26:24;100024.22;;;24.42;45.91
56518;BME280;42419;48.760;2.322;2022-09-13T08:28:58;100036.81;;;24.42;45.47
56518;BME280;42419;48.760;2.322;2022-09-13T08:31:24;100031.44;;;24.42;45.84
56518;BME280;42419;48.760;2.322;2022-09-13T08:33:49;100038.75;;;24.40;45.65
56518;BME280;42419;48.760;2.322;2022-09-13T08:36:16;100054.78;;;24.41;45.66
56518;BME280;42419;48.760;2.322;2022-09-13T08:38:46;100059.34;;;24.41;45.33
56518;BME280;42419;48.760;2.322;2022-09-13T08:41:48;100060.16;;;24.41;45.42
56518;BME280;42419;48.760;2.322;2022-09-13T08:44:36;100059.44;;;24.39;45.39
56518;BME280;42419;48.760;2.322;2022-09-13T08:49:47;100069.09;;;24.42;45.43
56518;BME280;42419;48.760;2.322;2022-09-13T08:54:50;100076.22;;;24.43;45.40
56518;BME280;42419;48.760;2.322;2022-09-13T08:57:18;100078.81;;;24.44;45.77
56518;BME280;42419;48.760;2.322;2022-09-13T08:59:52;100072.44;;;24.45;45.33
56518;BME280;42419;48.760;2.322;2022-09-13T09:02:47;100075.03;;;24.47;45.82
56518;BME280;42419;48.760;2.322;2022-09-13T09:05:22;100071.47;;;24.46;45.66
56518;BME280;42419;48.760;2.322;2022-09-13T09:07:53;100089.47;;;24.46;45.41
56518;BME280;42419;48.760;2.322;2022-09-13T09:12:58;100098.34;;;24.48;45.24
56518;BME280;42419;48.760;2.322;2022-09-13T09:15:34;100094.84;;;24.46;45.35
56518;BME280;42419;48.760;2.322;2022-09-13T09:18:20;100097.25;;;24.50;45.61
56518;BME280;42419;48.760;2.322;2022-09-13T09:20:50;100092.72;;;24.51;45.53
56518;BME280;42419;48.760;2.322;2022-09-13T09:23:23;100089.94;;;24.52;45.70
56518;BME280;42419;48.760;2.322;2022-09-13T09:25:54;100083.47;;;24.55;45.85
56518;BME280;42419;48.760;2.322;2022-09-13T09:28:20;100085.22;;;24.56;45.43
56518;BME280;42419;48.760;2.322;2022-09-13T09:36:17;100088.84;;;24.55;45.77
56518;BME280;42419;48.760;2.322;2022-09-13T09:38:44;100100.50;;;24.55;45.33
56518;BME280;42419;48.760;2.322;2022-09-13T09:41:30;100096.06;;;24.54;45.29
56518;BME280;42419;48.760;2.322;2022-09-13T09:44:16;100100.50;;;24.55;45.82
56518;BME280;42419;48.760;2.322;2022-09-13T09:46:43;100101.34;;;24.56;45.81
56518;BME280;42419;48.760;2.322;2022-09-13T09:52:09;100098.75;;;24.54;45.71
56518;BME280;42419;48.760;2.322;2022-09-13T09:54:36;100099.75;;;24.53;45.48
56518;BME280;42419;48.760;2.322;2022-09-13T09:57:03;100108.56;;;24.55;45.58
56518;BME280;42419;48.760;2.322;2022-09-13T09:59:31;100108.47;;;24.57;45.74
56518;BME280;42419;48.760;2.322;2022-09-13T10:01:59;100112.03;;;24.57;45.72
56518;BME280;42419;48.760;2.322;2022-09-13T10:04:26;100096.19;;;24.53;45.30
56518;BME280;42419;48.760;2.322;2022-09-13T10:07:31;100100.31;;;24.58;45.25
56518;BME280;42419;48.760;2.322;2022-09-13T10:10:02;100093.19;;;24.57;45.47
56518;BME280;42419;48.760;2.322;2022-09-13T10:12:36;100097.63;;;24.58;45.22
56518;BME280;42419;48.760;2.322;2022-09-13T10:15:13;100100.31;;;24.58;45.46
56518;BME280;42419;48.760;2.322;2022-09-13T10:17:40;100090.50;;;24.57;45.39
56518;BME280;42419;48.760;2.322;2022-09-13T10:20:25;100102.88;;;24.60;45.75
56518;BME280;42419;48.760;2.322;2022-09-13T10:25:38;100075.63;;;24.52;45.61
56518;BME280;42419;48.760;2.322;2022-09-13T10:28:11;100048.66;;;24.39;45.30
56518;BME280;42419;48.760;2.322;2022-09-13T10:30:45;100085.84;;;24.59;45.62
56518;BME280;42419;48.760;2.322;2022-09-13T10:33:26;100087.69;;;24.59;45.34
56518;BME280;42419;48.760;2.322;2022-09-13T10:35:55;100089.31;;;24.62;45.27
56518;BME280;42419;48.760;2.322;2022-09-13T10:38:26;100080.28;;;24.63;45.81
56518;BME280;42419;48.760;2.322;2022-09-13T10:40:54;100081.25;;;24.62;45.77
56518;BME280;42419;48.760;2.322;2022-09-13T10:43:19;100083.72;;;24.65;45.92
56518;BME280;42419;48.760;2.322;2022-09-13T10:45:50;100076.41;;;24.67;45.60
56518;BME280;42419;48.760;2.322;2022-09-13T10:48:18;100078.97;;;24.68;45.17
56518;BME280;42419;48.760;2.322;2022-09-13T10:53:36;100074.34;;;24.70;45.69
56518;BME280;42419;48.760;2.322;2022-09-13T10:56:02;100072.41;;;24.72;45.46
56518;BME280;42419;48.760;2.322;2022-09-13T10:58:28;100058.09;;;24.72;45.67
56518;BME280;42419;48.760;2.322;2022-09-13T11:01:22;100058.84;;;24.74;45.51
56518;BME280;42419;48.760;2.322;2022-09-13T11:06:50;100063.38;;;24.73;45.44
56518;BME280;42419;48.760;2.322;2022-09-13T11:09:23;100063.50;;;24.72;45.50
56518;BME280;42419;48.760;2.322;2022-09-13T11:14:39;100052.50;;;24.75;45.22
56518;BME280;42419;48.760;2.322;2022-09-13T11:28:28;100040.13;;;24.85;45.12
56518;BME280;42419;48.760;2.322;2022-09-13T11:31:25;100035.69;;;24.84;45.18
56518;BME280;42419;48.760;2.322;2022-09-13T11:39:31;100064.34;;;24.85;44.95
56518;BME280;42419;48.760;2.322;2022-09-13T11:42:08;100063.34;;;24.86;45.48
56518;BME280;42419;48.760;2.322;2022-09-13T11:50:24;100031.28;;;24.83;45.46
56518;BME280;42419;48.760;2.322;2022-09-13T11:55:31;100045.28;;;24.88;45.50
56518;BME280;42419;48.760;2.322;2022-09-13T11:58:00;100048.06;;;24.86;45.18
56518;BME280;42419;48.760;2.322;2022-09-13T12:00:35;100053.44;;;24.86;45.00
56518;BME280;42419;48.760;2.322;2022-09-13T12:03:14;100055.41;;;24.84;45.26
56518;BME280;42419;48.760;2.322;2022-09-13T12:05:46;100031.91;;;24.74;45.40
56518;BME280;42419;48.760;2.322;2022-09-13T12:08:23;100053.44;;;24.86;45.55
56518;BME280;42419;48.760;2.322;2022-09-13T12:10:59;100048.94;;;24.87;45.17
56518;BME280;42419;48.760;2.322;2022-09-13T12:13:34;100045.19;;;24.89;45.52
56518;BME280;42419;48.760;2.322;2022-09-13T12:16:06;100034.28;;;24.91;44.98
56518;BME280;42419;48.760;2.322;2022-09-13T12:18:42;100006.06;;;24.84;45.22
56518;BME280;42419;48.760;2.322;2022-09-13T12:21:10;99959.78;;;24.53;45.54
56518;BME280;42419;48.760;2.322;2022-09-13T12:23:42;100029.44;;;24.96;45.13
56518;BME280;42419;48.760;2.322;2022-09-13T12:26:30;100026.63;;;24.97;45.03
56518;BME280;42419;48.760;2.322;2022-09-13T12:29:06;100021.97;;;24.99;45.14
56518;BME280;42419;48.760;2.322;2022-09-13T12:31:35;100013.91;;;24.99;45.35
56518;BME280;42419;48.760;2.322;2022-09-13T12:34:05;100007.88;;;24.96;44.94
56518;BME280;42419;48.760;2.322;2022-09-13T12:44:37;99993.13;;;25.01;45.24
56518;BME280;42419;48.760;2.322;2022-09-13T12:50:04;99978.78;;;25.01;45.30
56518;BME280;42419;48.760;2.322;2022-09-13T13:01:19;99968.56;;;24.93;45.52
56518;BME280;42419;48.760;2.322;2022-09-13T13:03:51;99962.31;;;24.93;45.13
56518;BME280;42419;48.760;2.322;2022-09-13T13:06:33;99960.50;;;24.93;45.23
56518;BME280;42419;48.760;2.322;2022-09-13T13:09:03;99950.59;;;24.94;45.32
56518;BME280;42419;48.760;2.322;2022-09-13T13:11:42;99952.19;;;24.96;45.63
56518;BME280;42419;48.760;2.322;2022-09-13T13:14:27;99932.38;;;24.97;45.38
56518;BME280;42419;48.760;2.322;2022-09-13T13:16:52;99934.09;;;25.11;45.31
56518;BME280;42419;48.760;2.322;2022-09-13T13:19:30;99932.13;;;25.13;46.06
56518;BME280;42419;48.760;2.322;2022-09-13T13:25:36;99949.78;;;25.17;45.65
56518;BME280;42419;48.760;2.322;2022-09-13T13:31:07;99957.03;;;25.17;46.14
56518;BME280;42419;48.760;2.322;2022-09-13T13:33:50;99965.13;;;25.17;45.79
56518;BME280;42419;48.760;2.322;2022-09-13T13:36:26;99965.13;;;25.17;45.67
56518;BME280;42419;48.760;2.322;2022-09-13T13:38:53;99951.66;;;25.17;46.07
56518;BME280;42419;48.760;2.322;2022-09-13T13:41:37;99943.03;;;25.12;46.16
56518;BME280;42419;48.760;2.322;2022-09-13T13:46:42;99950.00;;;25.14;45.80
56518;BME280;42419;48.760;2.322;2022-09-13T13:59:54;99919.09;;;25.07;45.72
56518;BME280;42419;48.760;2.322;2022-09-13T14:02:31;99916.50;;;25.05;46.14
56518;BME280;42419;48.760;2.322;2022-09-13T14:07:48;99909.53;;;25.03;45.73
56518;BME280;42419;48.760;2.322;2022-09-13T14:10:24;99910.50;;;25.02;45.73
56518;BME280;42419;48.760;2.322;2022-09-13T14:13:02;99906.81;;;25.03;46.08
56518;BME280;42419;48.760;2.322;2022-09-13T14:15:59;99898.84;;;25.01;46.07
56518;BME280;42419;48.760;2.322;2022-09-13T14:21:29;99896.16;;;25.01;45.97
56518;BME280;42419;48.760;2.322;2022-09-13T14:26:39;99812.28;;;24.58;46.02
56518;BME280;42419;48.760;2.322;2022-09-13T14:29:06;99876.88;;;24.95;46.00
56518;BME280;42419;48.760;2.322;2022-09-13T14:31:32;99899.25;;;25.08;45.91
56518;BME280;42419;48.760;2.322;2022-09-13T14:33:57;99899.06;;;25.11;45.88
56518;BME280;42419;48.760;2.322;2022-09-13T14:36:22;99904.47;;;25.11;45.98
56518;BME280;42419;48.760;2.322;2022-09-13T14:38:58;99905.31;;;25.12;46.03
56518;BME280;42419;48.760;2.322;2022-09-13T14:41:36;99911.69;;;25.11;46.25
56518;BME280;42419;48.760;2.322;2022-09-13T14:44:23;99896.44;;;25.10;46.41
56518;BME280;42419;48.760;2.322;2022-09-13T14:47:00;99900.09;;;25.09;45.85
56518;BME280;42419;48.760;2.322;2022-09-13T14:49:36;99896.06;;;25.03;46.07
56518;BME280;42419;48.760;2.322;2022-09-13T14:52:09;99902.06;;;25.07;45.87
56518;BME280;42419;48.760;2.322;2022-09-13T14:54:42;99902.16;;;25.05;45.90
56518;BME280;42419;48.760;2.322;2022-09-13T14:57:21;99898.63;;;25.04;46.51
56518;BME280;42419;48.760;2.322;2022-09-13T14:59:51;99899.81;;;25.00;46.51
56518;BME280;42419;48.760;2.322;2022-09-13T15:02:22;99909.53;;;25.03;46.61
56518;BME280;42419;48.760;2.322;2022-09-13T15:04:53;99898.44;;;24.95;46.20
56518;BME280;42419;48.760;2.322;2022-09-13T15:07:22;99904.47;;;24.98;46.41
56518;BME280;42419;48.760;2.322;2022-09-13T15:09:55;99904.34;;;25.00;46.21
56518;BME280;42419;48.760;2.322;2022-09-13T15:12:26;99907.03;;;25.00;46.34
56518;BME280;42419;48.760;2.322;2022-09-13T15:17:58;99897.22;;;24.99;46.59
56518;BME280;42419;48.760;2.322;2022-09-13T15:20:47;99895.53;;;24.98;46.67
56518;BME280;42419;48.760;2.322;2022-09-13T15:26:09;99898.31;;;24.96;46.30
56518;BME280;42419;48.760;2.322;2022-09-13T15:36:40;99887.44;;;24.98;46.54
56518;BME280;42419;48.760;2.322;2022-09-13T15:39:13;99886.00;;;25.05;46.71
56518;BME280;42419;48.760;2.322;2022-09-13T15:41:51;99871.16;;;24.99;46.97
56518;BME280;42419;48.760;2.322;2022-09-13T15:44:16;99876.00;;;25.07;46.89